EDDC/DRS METAR and TAF weather

Enter ICAO airport designator
Station Type Date Time Source
EDDC METAR 2019/11/15 05:20 UTC NOAA

EDDC 150520Z 08011KT 9999 BKN024 04/02 Q1003 NOSIG


Station Type Date Time Source
EDDC Decoded METAR 2019/11/15 05:20 UTC NOAA

Dresden-Klotzsche, Germany (EDDC) 51-08N 013-45E 232M
Nov 15, 2019 - 12:20 AM EST / 2019.11.15 0520 UTC
Wind: from the E (080 degrees) at 13 MPH (11 KT):0
Visibility: greater than 7 mile(s):0
Sky conditions: mostly cloudy
Temperature: 39 F (4 C)
Dew Point: 35 F (2 C)
Relative Humidity: 86%
Pressure (altimeter): 29.62 in. Hg (1003 hPa)
ob: EDDC 150520Z 08011KT 9999 BKN024 04/02 Q1003 NOSIG
cycle: 5

Station Type Date Time Source
EDDC TAF 2019/11/15 06:27 UTC NOAA

TAF EDDC 150500Z 1506/1606 09012KT 9999 BKN025
BECMG 1506/1509 13015G25KT
BECMG 1514/1516 12009KT

Example: see airport list